sensor_id;sensor_type;location;lat;lon;timestamp;pressure;altitude;pressure_sealevel;temperature;humidity
69955;BME280;57279;55.912;37.490;2022-11-30T00:00:36;101839.63;;;-7.36;63.87
69955;BME280;57279;55.912;37.490;2022-11-30T00:03:03;101832.72;;;-7.39;63.27
69955;BME280;57279;55.912;37.490;2022-11-30T00:05:29;101832.06;;;-7.42;63.60
69955;BME280;57279;55.912;37.490;2022-11-30T00:07:54;101829.69;;;-7.47;63.99
69955;BME280;57279;55.912;37.490;2022-11-30T00:10:21;101834.78;;;-7.44;64.10
69955;BME280;57279;55.912;37.490;2022-11-30T00:12:47;101830.84;;;-7.53;63.91
69955;BME280;57279;55.912;37.490;2022-11-30T00:15:13;101831.69;;;-7.52;64.44
69955;BME280;57279;55.912;37.490;2022-11-30T00:17:42;101837.91;;;-7.53;64.45
69955;BME280;57279;55.912;37.490;2022-11-30T00:20:09;101840.19;;;-7.47;64.12
69955;BME280;57279;55.912;37.490;2022-11-30T00:22:35;101841.91;;;-7.46;63.66
69955;BME280;57279;55.912;37.490;2022-11-30T00:25:01;101836.66;;;-7.46;63.86
69955;BME280;57279;55.912;37.490;2022-11-30T00:27:30;101840.88;;;-7.43;64.37
69955;BME280;57279;55.912;37.490;2022-11-30T00:29:56;101838.25;;;-7.43;63.88
69955;BME280;57279;55.912;37.490;2022-11-30T00:32:21;101832.31;;;-7.47;64.04
69955;BME280;57279;55.912;37.490;2022-11-30T00:34:47;101838.31;;;-7.45;64.33
69955;BME280;57279;55.912;37.490;2022-11-30T00:37:13;101842.72;;;-7.45;64.03
69955;BME280;57279;55.912;37.490;2022-11-30T00:39:39;101825.28;;;-7.47;64.02
69955;BME280;57279;55.912;37.490;2022-11-30T00:42:05;101835.00;;;-7.49;63.85
69955;BME280;57279;55.912;37.490;2022-11-30T00:44:30;101833.16;;;-7.47;63.93
69955;BME280;57279;55.912;37.490;2022-11-30T00:46:56;101827.75;;;-7.43;63.99
69955;BME280;57279;55.912;37.490;2022-11-30T00:49:22;101823.34;;;-7.43;63.98
69955;BME280;57279;55.912;37.490;2022-11-30T00:51:48;101830.28;;;-7.42;64.16
69955;BME280;57279;55.912;37.490;2022-11-30T00:54:13;101823.19;;;-7.40;64.25
69955;BME280;57279;55.912;37.490;2022-11-30T00:56:39;101826.81;;;-7.42;63.93
69955;BME280;57279;55.912;37.490;2022-11-30T00:59:05;101820.63;;;-7.41;64.09
69955;BME280;57279;55.912;37.490;2022-11-30T01:01:30;101819.72;;;-7.40;64.23
69955;BME280;57279;55.912;37.490;2022-11-30T01:03:57;101823.94;;;-7.38;64.46
69955;BME280;57279;55.912;37.490;2022-11-30T01:06:24;101824.84;;;-7.39;64.33
69955;BME280;57279;55.912;37.490;2022-11-30T01:08:50;101824.63;;;-7.34;63.82
69955;BME280;57279;55.912;37.490;2022-11-30T01:11:24;101820.38;;;-7.37;63.70
69955;BME280;57279;55.912;37.490;2022-11-30T01:13:51;101822.22;;;-7.39;63.44
69955;BME280;57279;55.912;37.490;2022-11-30T01:16:20;101817.25;;;-7.43;63.50
69955;BME280;57279;55.912;37.490;2022-11-30T01:18:46;101823.53;;;-7.46;62.54
69955;BME280;57279;55.912;37.490;2022-11-30T01:21:14;101816.56;;;-7.47;62.51
69955;BME280;57279;55.912;37.490;2022-11-30T01:23:41;101813.59;;;-7.57;62.70
69955;BME280;57279;55.912;37.490;2022-11-30T01:26:07;101820.63;;;-7.57;63.06
69955;BME280;57279;55.912;37.490;2022-11-30T01:28:33;101819.75;;;-7.58;63.03
69955;BME280;57279;55.912;37.490;2022-11-30T01:31:05;101825.09;;;-7.59;63.32
69955;BME280;57279;55.912;37.490;2022-11-30T01:33:31;101825.00;;;-7.58;63.11
69955;BME280;57279;55.912;37.490;2022-11-30T01:36:07;101813.94;;;-7.63;62.67
69955;BME280;57279;55.912;37.490;2022-11-30T01:38:39;101806.28;;;-7.68;62.48
69955;BME280;57279;55.912;37.490;2022-11-30T01:41:06;101814.00;;;-7.64;62.90
69955;BME280;57279;55.912;37.490;2022-11-30T01:43:52;101815.94;;;-7.68;63.08
69955;BME280;57279;55.912;37.490;2022-11-30T01:49:04;101816.97;;;-7.71;63.39
69955;BME280;57279;55.912;37.490;2022-11-30T01:51:48;101809.84;;;-7.69;62.98
69955;BME280;57279;55.912;37.490;2022-11-30T01:54:20;101808.13;;;-7.70;62.61
69955;BME280;57279;55.912;37.490;2022-11-30T01:56:50;101806.47;;;-7.71;62.29
69955;BME280;57279;55.912;37.490;2022-11-30T01:59:19;101805.59;;;-7.71;62.90
69955;BME280;57279;55.912;37.490;2022-11-30T02:01:46;101804.84;;;-7.73;62.70
69955;BME280;57279;55.912;37.490;2022-11-30T02:04:19;101802.41;;;-7.76;62.57
69955;BME280;57279;55.912;37.490;2022-11-30T02:06:46;101803.38;;;-7.79;62.99
69955;BME280;57279;55.912;37.490;2022-11-30T02:09:15;101801.00;;;-7.83;62.54
69955;BME280;57279;55.912;37.490;2022-11-30T02:11:42;101801.69;;;-7.80;62.48
69955;BME280;57279;55.912;37.490;2022-11-30T02:28:11;101790.66;;;-7.87;62.71
69955;BME280;57279;55.912;37.490;2022-11-30T02:30:42;101801.75;;;-7.97;62.71
69955;BME280;57279;55.912;37.490;2022-11-30T02:33:18;101802.59;;;-7.97;62.73
69955;BME280;57279;55.912;37.490;2022-11-30T02:35:48;101802.97;;;-8.04;62.96
69955;BME280;57279;55.912;37.490;2022-11-30T02:38:18;101795.75;;;-7.99;62.84
69955;BME280;57279;55.912;37.490;2022-11-30T02:40:45;101795.56;;;-7.96;63.01
69955;BME280;57279;55.912;37.490;2022-11-30T02:43:11;101794.66;;;-7.95;62.69
69955;BME280;57279;55.912;37.490;2022-11-30T02:45:53;101794.56;;;-7.94;62.33
69955;BME280;57279;55.912;37.490;2022-11-30T02:48:27;101792.88;;;-7.95;62.37
69955;BME280;57279;55.912;37.490;2022-11-30T02:50:58;101786.78;;;-7.95;61.76
69955;BME280;57279;55.912;37.490;2022-11-30T02:53:27;101785.91;;;-7.96;62.36
69955;BME280;57279;55.912;37.490;2022-11-30T02:55:53;101793.63;;;-7.93;62.48
69955;BME280;57279;55.912;37.490;2022-11-30T02:58:19;101786.16;;;-8.00;62.29
69955;BME280;57279;55.912;37.490;2022-11-30T03:00:45;101784.84;;;-8.09;62.14
69955;BME280;57279;55.912;37.490;2022-11-30T03:03:11;101776.22;;;-8.11;62.15
69955;BME280;57279;55.912;37.490;2022-11-30T03:05:37;101778.56;;;-8.22;61.93
69955;BME280;57279;55.912;37.490;2022-11-30T03:08:03;101780.19;;;-8.20;63.03
69955;BME280;57279;55.912;37.490;2022-11-30T03:10:28;101781.72;;;-8.16;62.49
69955;BME280;57279;55.912;37.490;2022-11-30T03:12:58;101792.53;;;-8.22;62.42
69955;BME280;57279;55.912;37.490;2022-11-30T03:15:24;101776.63;;;-8.19;62.71
69955;BME280;57279;55.912;37.490;2022-11-30T03:17:50;101788.81;;;-8.18;61.74
69955;BME280;57279;55.912;37.490;2022-11-30T03:20:16;101794.97;;;-8.19;62.62
69955;BME280;57279;55.912;37.490;2022-11-30T03:22:41;101783.72;;;-8.21;62.56
69955;BME280;57279;55.912;37.490;2022-11-30T03:25:07;101787.88;;;-8.17;62.45
69955;BME280;57279;55.912;37.490;2022-11-30T03:27:33;101793.28;;;-8.20;62.34
69955;BME280;57279;55.912;37.490;2022-11-30T03:29:59;101784.47;;;-8.19;62.38
69955;BME280;57279;55.912;37.490;2022-11-30T03:32:25;101792.22;;;-8.16;62.38
69955;BME280;57279;55.912;37.490;2022-11-30T03:34:50;101788.97;;;-8.21;62.25
69955;BME280;57279;55.912;37.490;2022-11-30T03:37:16;101797.00;;;-8.24;62.24
69955;BME280;57279;55.912;37.490;2022-11-30T03:39:42;101792.81;;;-8.28;61.91
69955;BME280;57279;55.912;37.490;2022-11-30T03:42:08;101796.06;;;-8.23;61.65
69955;BME280;57279;55.912;37.490;2022-11-30T03:44:33;101799.69;;;-8.26;61.37
69955;BME280;57279;55.912;37.490;2022-11-30T03:46:59;101795.38;;;-8.27;61.22
69955;BME280;57279;55.912;37.490;2022-11-30T03:49:24;101787.75;;;-8.31;60.83
69955;BME280;57279;55.912;37.490;2022-11-30T03:51:50;101788.75;;;-8.34;61.84
69955;BME280;57279;55.912;37.490;2022-11-30T03:54:16;101795.63;;;-8.31;61.26
69955;BME280;57279;55.912;37.490;2022-11-30T03:56:42;101789.34;;;-8.44;61.28
69955;BME280;57279;55.912;37.490;2022-11-30T03:59:07;101791.19;;;-8.47;61.80
69955;BME280;57279;55.912;37.490;2022-11-30T04:01:33;101790.16;;;-8.44;61.66
69955;BME280;57279;55.912;37.490;2022-11-30T04:04:00;101792.53;;;-8.39;61.52
69955;BME280;57279;55.912;37.490;2022-11-30T04:06:26;101799.47;;;-8.38;61.81
69955;BME280;57279;55.912;37.490;2022-11-30T04:08:51;101796.63;;;-8.51;61.43
69955;BME280;57279;55.912;37.490;2022-11-30T04:11:17;101789.25;;;-8.43;62.02
69955;BME280;57279;55.912;37.490;2022-11-30T04:13:43;101793.81;;;-8.47;61.59
69955;BME280;57279;55.912;37.490;2022-11-30T04:16:09;101790.34;;;-8.47;62.16
69955;BME280;57279;55.912;37.490;2022-11-30T04:18:35;101791.94;;;-8.44;61.80
69955;BME280;57279;55.912;37.490;2022-11-30T04:21:01;101793.94;;;-8.50;61.76
69955;BME280;57279;55.912;37.490;2022-11-30T04:23:32;101789.53;;;-8.49;61.80
69955;BME280;57279;55.912;37.490;2022-11-30T04:25:59;101796.09;;;-8.58;61.95
69955;BME280;57279;55.912;37.490;2022-11-30T04:28:26;101792.47;;;-8.55;61.39
69955;BME280;57279;55.912;37.490;2022-11-30T04:30:52;101795.03;;;-8.54;61.06
69955;BME280;57279;55.912;37.490;2022-11-30T04:33:18;101789.78;;;-8.54;61.68
69955;BME280;57279;55.912;37.490;2022-11-30T04:35:46;101785.78;;;-8.61;60.88
69955;BME280;57279;55.912;37.490;2022-11-30T04:38:13;101800.88;;;-8.66;60.84
69955;BME280;57279;55.912;37.490;2022-11-30T04:40:39;101800.72;;;-8.63;61.24
69955;BME280;57279;55.912;37.490;2022-11-30T04:43:05;101799.63;;;-8.76;61.25
69955;BME280;57279;55.912;37.490;2022-11-30T04:45:31;101805.16;;;-8.82;61.99
69955;BME280;57279;55.912;37.490;2022-11-30T04:47:57;101809.38;;;-8.97;62.14
69955;BME280;57279;55.912;37.490;2022-11-30T04:50:22;101808.19;;;-9.09;62.57
69955;BME280;57279;55.912;37.490;2022-11-30T04:52:48;101807.34;;;-9.10;62.71
69955;BME280;57279;55.912;37.490;2022-11-30T04:55:14;101809.19;;;-9.12;62.48
69955;BME280;57279;55.912;37.490;2022-11-30T04:57:47;101804.31;;;-9.19;62.55
69955;BME280;57279;55.912;37.490;2022-11-30T05:00:14;101808.50;;;-9.15;62.62
69955;BME280;57279;55.912;37.490;2022-11-30T05:02:41;101808.13;;;-9.08;62.37
69955;BME280;57279;55.912;37.490;2022-11-30T05:05:07;101803.38;;;-8.99;62.82
69955;BME280;57279;55.912;37.490;2022-11-30T05:07:33;101800.88;;;-9.02;62.34
69955;BME280;57279;55.912;37.490;2022-11-30T05:09:58;101804.84;;;-8.94;61.85
69955;BME280;57279;55.912;37.490;2022-11-30T05:12:24;101803.63;;;-8.87;61.94
69955;BME280;57279;55.912;37.490;2022-11-30T05:14:50;101794.47;;;-8.78;61.85
69955;BME280;57279;55.912;37.490;2022-11-30T05:17:15;101798.09;;;-8.80;61.26
69955;BME280;57279;55.912;37.490;2022-11-30T05:19:41;101795.97;;;-8.91;61.72
69955;BME280;57279;55.912;37.490;2022-11-30T05:22:07;101799.03;;;-9.00;62.40
69955;BME280;57279;55.912;37.490;2022-11-30T05:24:33;101796.28;;;-8.97;62.22
69955;BME280;57279;55.912;37.490;2022-11-30T05:26:58;101790.03;;;-8.95;62.83
69955;BME280;57279;55.912;37.490;2022-11-30T05:29:24;101790.75;;;-8.91;62.06
69955;BME280;57279;55.912;37.490;2022-11-30T05:31:50;101793.28;;;-8.90;62.00
69955;BME280;57279;55.912;37.490;2022-11-30T05:34:16;101800.50;;;-8.95;62.34
69955;BME280;57279;55.912;37.490;2022-11-30T05:36:41;101806.81;;;-8.99;62.40
69955;BME280;57279;55.912;37.490;2022-11-30T05:39:07;101798.56;;;-9.09;62.66
69955;BME280;57279;55.912;37.490;2022-11-30T05:41:33;101793.75;;;-9.18;62.87
69955;BME280;57279;55.912;37.490;2022-11-30T05:43:59;101802.91;;;-9.08;63.29
69955;BME280;57279;55.912;37.490;2022-11-30T05:46:24;101804.44;;;-9.03;62.99
69955;BME280;57279;55.912;37.490;2022-11-30T05:48:50;101808.97;;;-9.07;63.09
69955;BME280;57279;55.912;37.490;2022-11-30T05:51:19;101813.69;;;-8.96;63.23
69955;BME280;57279;55.912;37.490;2022-11-30T05:53:45;101815.38;;;-8.95;63.00
69955;BME280;57279;55.912;37.490;2022-11-30T05:56:14;101826.50;;;-8.90;63.35
69955;BME280;57279;55.912;37.490;2022-11-30T05:58:41;101824.28;;;-8.80;62.87
69955;BME280;57279;55.912;37.490;2022-11-30T06:01:07;101834.75;;;-8.80;63.28
69955;BME280;57279;55.912;37.490;2022-11-30T06:03:34;101828.91;;;-8.68;63.02
69955;BME280;57279;55.912;37.490;2022-11-30T06:06:00;101826.78;;;-8.60;62.82
69955;BME280;57279;55.912;37.490;2022-11-30T06:08:26;101833.88;;;-8.44;62.51
69955;BME280;57279;55.912;37.490;2022-11-30T06:10:52;101829.53;;;-8.46;62.47
69955;BME280;57279;55.912;37.490;2022-11-30T06:13:19;101838.16;;;-8.43;62.54
69955;BME280;57279;55.912;37.490;2022-11-30T06:15:44;101834.53;;;-8.41;62.29
69955;BME280;57279;55.912;37.490;2022-11-30T06:18:12;101829.91;;;-8.36;62.42
69955;BME280;57279;55.912;37.490;2022-11-30T06:20:38;101828.06;;;-8.34;62.25
69955;BME280;57279;55.912;37.490;2022-11-30T06:23:04;101834.28;;;-8.36;62.26
69955;BME280;57279;55.912;37.490;2022-11-30T06:25:30;101835.31;;;-8.39;61.92
69955;BME280;57279;55.912;37.490;2022-11-30T06:27:56;101830.47;;;-8.47;62.40
69955;BME280;57279;55.912;37.490;2022-11-30T06:30:21;101832.50;;;-8.36;62.92
69955;BME280;57279;55.912;37.490;2022-11-30T06:32:49;101833.97;;;-8.30;62.81
69955;BME280;57279;55.912;37.490;2022-11-30T06:35:15;101838.44;;;-8.15;62.66
69955;BME280;57279;55.912;37.490;2022-11-30T06:37:41;101844.63;;;-8.16;62.76
69955;BME280;57279;55.912;37.490;2022-11-30T06:40:08;101842.00;;;-8.16;62.71
69955;BME280;57279;55.912;37.490;2022-11-30T06:42:35;101852.88;;;-8.06;62.95
69955;BME280;57279;55.912;37.490;2022-11-30T06:45:01;101846.47;;;-8.00;62.91
69955;BME280;57279;55.912;37.490;2022-11-30T06:47:27;101849.00;;;-7.99;63.02
69955;BME280;57279;55.912;37.490;2022-11-30T06:49:53;101847.69;;;-8.08;63.23
69955;BME280;57279;55.912;37.490;2022-11-30T06:52:19;101848.66;;;-8.09;63.88
69955;BME280;57279;55.912;37.490;2022-11-30T06:54:45;101847.31;;;-8.00;64.35
69955;BME280;57279;55.912;37.490;2022-11-30T06:57:11;101846.91;;;-7.92;64.15
69955;BME280;57279;55.912;37.490;2022-11-30T06:59:37;101846.22;;;-7.78;63.57
69955;BME280;57279;55.912;37.490;2022-11-30T07:02:14;101850.31;;;-7.73;63.76
69955;BME280;57279;55.912;37.490;2022-11-30T07:04:40;101862.31;;;-7.69;63.90
69955;BME280;57279;55.912;37.490;2022-11-30T07:07:06;101849.91;;;-7.65;64.34
69955;BME280;57279;55.912;37.490;2022-11-30T07:09:35;101849.38;;;-7.56;64.12
69955;BME280;57279;55.912;37.490;2022-11-30T07:12:02;101844.75;;;-7.51;64.17
69955;BME280;57279;55.912;37.490;2022-11-30T07:14:27;101852.13;;;-7.41;64.41
69955;BME280;57279;55.912;37.490;2022-11-30T07:16:54;101854.19;;;-7.31;64.28
69955;BME280;57279;55.912;37.490;2022-11-30T07:19:20;101856.47;;;-7.24;65.67
69955;BME280;57279;55.912;37.490;2022-11-30T07:21:46;101862.22;;;-7.18;64.53
69955;BME280;57279;55.912;37.490;2022-11-30T07:24:12;101862.41;;;-7.21;64.96
69955;BME280;57279;55.912;37.490;2022-11-30T07:27:00;101867.84;;;-7.08;65.15
69955;BME280;57279;55.912;37.490;2022-11-30T07:29:27;101864.09;;;-7.20;65.63
69955;BME280;57279;55.912;37.490;2022-11-30T07:31:53;101872.16;;;-7.07;66.13
69955;BME280;57279;55.912;37.490;2022-11-30T07:34:19;101867.75;;;-7.07;66.06
69955;BME280;57279;55.912;37.490;2022-11-30T07:36:45;101873.00;;;-6.91;65.67
69955;BME280;57279;55.912;37.490;2022-11-30T07:39:12;101875.88;;;-6.95;66.11
69955;BME280;57279;55.912;37.490;2022-11-30T07:41:38;101875.72;;;-7.08;66.55
69955;BME280;57279;55.912;37.490;2022-11-30T07:44:05;101875.31;;;-7.00;66.87
69955;BME280;57279;55.912;37.490;2022-11-30T07:46:31;101870.53;;;-6.94;66.80
69955;BME280;57279;55.912;37.490;2022-11-30T07:49:00;101875.28;;;-6.69;66.46
69955;BME280;57279;55.912;37.490;2022-11-30T07:51:26;101875.13;;;-6.65;65.87
69955;BME280;57279;55.912;37.490;2022-11-30T07:53:54;101869.19;;;-6.69;66.13
69955;BME280;57279;55.912;37.490;2022-11-30T07:56:21;101870.88;;;-6.68;66.69
69955;BME280;57279;55.912;37.490;2022-11-30T07:58:48;101871.00;;;-6.55;66.53
69955;BME280;57279;55.912;37.490;2022-11-30T08:01:19;101875.66;;;-6.44;66.06
69955;BME280;57279;55.912;37.490;2022-11-30T08:03:47;101871.69;;;-6.36;65.92
69955;BME280;57279;55.912;37.490;2022-11-30T08:06:18;101875.84;;;-6.47;66.17
69955;BME280;57279;55.912;37.490;2022-11-30T08:08:46;101872.59;;;-6.37;66.26
69955;BME280;57279;55.912;37.490;2022-11-30T08:11:15;101865.31;;;-6.32;66.26
69955;BME280;57279;55.912;37.490;2022-11-30T08:13:41;101866.44;;;-6.21;66.01
69955;BME280;57279;55.912;37.490;2022-11-30T08:16:18;101864.63;;;-6.05;65.84
69955;BME280;57279;55.912;37.490;2022-11-30T08:18:44;101868.19;;;-6.06;65.85
69955;BME280;57279;55.912;37.490;2022-11-30T08:21:13;101865.84;;;-5.96;65.52
69955;BME280;57279;55.912;37.490;2022-11-30T08:23:41;101867.22;;;-5.91;65.09
69955;BME280;57279;55.912;37.490;2022-11-30T08:26:13;101863.22;;;-5.96;64.73
69955;BME280;57279;55.912;37.490;2022-11-30T08:28:41;101852.69;;;-5.96;64.81
69955;BME280;57279;55.912;37.490;2022-11-30T08:31:13;101852.31;;;-5.90;65.06
69955;BME280;57279;55.912;37.490;2022-11-30T08:33:39;101860.22;;;-5.90;65.16
69955;BME280;57279;55.912;37.490;2022-11-30T08:36:07;101861.97;;;-5.91;65.33
69955;BME280;57279;55.912;37.490;2022-11-30T08:38:34;101860.66;;;-5.98;65.42
69955;BME280;57279;55.912;37.490;2022-11-30T08:41:00;101842.72;;;-5.91;65.73
69955;BME280;57279;55.912;37.490;2022-11-30T08:43:27;101853.75;;;-5.84;65.46
69955;BME280;57279;55.912;37.490;2022-11-30T08:45:52;101844.44;;;-5.90;65.08
69955;BME280;57279;55.912;37.490;2022-11-30T08:48:19;101850.31;;;-5.86;64.77
69955;BME280;57279;55.912;37.490;2022-11-30T08:50:44;101853.63;;;-5.83;64.96
69955;BME280;57279;55.912;37.490;2022-11-30T08:53:10;101846.47;;;-5.81;65.09
69955;BME280;57279;55.912;37.490;2022-11-30T08:55:36;101851.38;;;-5.75;64.79
69955;BME280;57279;55.912;37.490;2022-11-30T08:58:01;101845.25;;;-5.75;65.36
69955;BME280;57279;55.912;37.490;2022-11-30T09:00:27;101848.91;;;-5.92;65.10
69955;BME280;57279;55.912;37.490;2022-11-30T09:02:53;101847.53;;;-5.98;65.62
69955;BME280;57279;55.912;37.490;2022-11-30T09:05:19;101836.25;;;-5.85;65.36
69955;BME280;57279;55.912;37.490;2022-11-30T09:07:44;101843.28;;;-5.86;65.63
69955;BME280;57279;55.912;37.490;2022-11-30T09:10:10;101841.69;;;-5.74;65.46
69955;BME280;57279;55.912;37.490;2022-11-30T09:12:37;101836.72;;;-5.64;64.81
69955;BME280;57279;55.912;37.490;2022-11-30T09:15:05;101836.06;;;-5.68;65.08
69955;BME280;57279;55.912;37.490;2022-11-30T09:17:31;101834.38;;;-5.69;65.00
69955;BME280;57279;55.912;37.490;2022-11-30T09:19:57;101835.47;;;-5.73;64.95
69955;BME280;57279;55.912;37.490;2022-11-30T09:22:23;101831.25;;;-5.76;65.41
69955;BME280;57279;55.912;37.490;2022-11-30T09:24:48;101840.56;;;-5.70;65.30
69955;BME280;57279;55.912;37.490;2022-11-30T09:27:14;101841.06;;;-5.63;65.30
69955;BME280;57279;55.912;37.490;2022-11-30T09:29:40;101839.34;;;-5.64;65.15
69955;BME280;57279;55.912;37.490;2022-11-30T09:32:06;101836.16;;;-5.70;65.16
69955;BME280;57279;55.912;37.490;2022-11-30T09:34:31;101836.63;;;-5.63;65.25
69955;BME280;57279;55.912;37.490;2022-11-30T09:36:57;101833.31;;;-5.52;65.41
69955;BME280;57279;55.912;37.490;2022-11-30T09:39:23;101837.84;;;-5.54;64.97
69955;BME280;57279;55.912;37.490;2022-11-30T09:49:43;101835.38;;;-5.43;65.79
69955;BME280;57279;55.912;37.490;2022-11-30T09:52:17;101834.81;;;-5.34;65.94
69955;BME280;57279;55.912;37.490;2022-11-30T09:54:44;101831.91;;;-5.29;65.17
69955;BME280;57279;55.912;37.490;2022-11-30T09:57:28;101827.97;;;-5.36;65.30
69955;BME280;57279;55.912;37.490;2022-11-30T09:59:56;101834.16;;;-5.23;65.07
69955;BME280;57279;55.912;37.490;2022-11-30T10:02:31;101832.66;;;-5.27;65.25
69955;BME280;57279;55.912;37.490;2022-11-30T10:04:59;101828.41;;;-5.15;65.08
69955;BME280;57279;55.912;37.490;2022-11-30T10:07:54;101829.72;;;-5.08;64.64
69955;BME280;57279;55.912;37.490;2022-11-30T10:18:44;101827.09;;;-5.08;64.91
69955;BME280;57279;55.912;37.490;2022-11-30T10:26:34;101830.97;;;-4.86;64.23
69955;BME280;57279;55.912;37.490;2022-11-30T10:29:17;101828.81;;;-4.94;64.51
69955;BME280;57279;55.912;37.490;2022-11-30T10:31:45;101832.50;;;-4.97;64.58
69955;BME280;57279;55.912;37.490;2022-11-30T10:36:45;101822.72;;;-4.95;64.92
69955;BME280;57279;55.912;37.490;2022-11-30T10:39:21;101821.56;;;-4.91;64.37
69955;BME280;57279;55.912;37.490;2022-11-30T10:42:05;101821.16;;;-4.84;64.61
69955;BME280;57279;55.912;37.490;2022-11-30T10:44:36;101831.13;;;-4.75;64.37
69955;BME280;57279;55.912;37.490;2022-11-30T10:49:41;101824.84;;;-4.60;64.34
69955;BME280;57279;55.912;37.490;2022-11-30T10:52:11;101825.16;;;-4.52;64.28
69955;BME280;57279;55.912;37.490;2022-11-30T10:54:40;101824.25;;;-4.50;64.06
69955;BME280;57279;55.912;37.490;2022-11-30T10:57:06;101819.72;;;-4.48;64.08
69955;BME280;57279;55.912;37.490;2022-11-30T11:05:17;101816.56;;;-4.41;64.51
69955;BME280;57279;55.912;37.490;2022-11-30T11:08:34;101816.56;;;-4.41;64.63
69955;BME280;57279;55.912;37.490;2022-11-30T11:13:35;101808.69;;;-4.28;64.25
69955;BME280;57279;55.912;37.490;2022-11-30T11:16:01;101804.84;;;-4.37;64.51
69955;BME280;57279;55.912;37.490;2022-11-30T11:18:31;101808.06;;;-4.19;64.54
69955;BME280;57279;55.912;37.490;2022-11-30T11:21:15;101820.09;;;-4.15;64.63
69955;BME280;57279;55.912;37.490;2022-11-30T11:23:43;101810.47;;;-4.16;64.39
69955;BME280;57279;55.912;37.490;2022-11-30T11:26:18;101813.66;;;-4.10;64.29
69955;BME280;57279;55.912;37.490;2022-11-30T11:28:47;101815.22;;;-4.08;64.50
69955;BME280;57279;55.912;37.490;2022-11-30T11:31:40;101814.28;;;-4.07;64.56
69955;BME280;57279;55.912;37.490;2022-11-30T11:34:32;101814.06;;;-4.17;64.36
69955;BME280;57279;55.912;37.490;2022-11-30T11:40:04;101813.34;;;-4.06;64.42
69955;BME280;57279;55.912;37.490;2022-11-30T11:42:55;101807.63;;;-4.13;64.28
69955;BME280;57279;55.912;37.490;2022-11-30T11:45:25;101808.38;;;-4.10;64.53
69955;BME280;57279;55.912;37.490;2022-11-30T11:48:01;101812.91;;;-4.13;64.21
69955;BME280;57279;55.912;37.490;2022-11-30T11:50:34;101808.56;;;-4.14;64.59
69955;BME280;57279;55.912;37.490;2022-11-30T11:53:20;101805.94;;;-4.14;64.18
69955;BME280;57279;55.912;37.490;2022-11-30T11:55:56;101808.38;;;-4.10;64.37
69955;BME280;57279;55.912;37.490;2022-11-30T11:58:51;101817.56;;;-4.03;64.20
69955;BME280;57279;55.912;37.490;2022-11-30T12:01:47;101813.97;;;-4.02;64.43
69955;BME280;57279;55.912;37.490;2022-11-30T12:07:43;101811.00;;;-4.23;64.74
69955;BME280;57279;55.912;37.490;2022-11-30T12:12:53;101812.16;;;-4.02;64.50
69955;BME280;57279;55.912;37.490;2022-11-30T12:15:27;101816.09;;;-3.95;64.37
69955;BME280;57279;55.912;37.490;2022-11-30T12:18:11;101812.81;;;-3.98;64.16
69955;BME280;57279;55.912;37.490;2022-11-30T12:20:53;101814.81;;;-4.02;64.30
69955;BME280;57279;55.912;37.490;2022-11-30T12:26:33;101815.31;;;-4.09;64.12
69955;BME280;57279;55.912;37.490;2022-11-30T12:29:17;101810.50;;;-4.03;64.02
69955;BME280;57279;55.912;37.490;2022-11-30T12:34:41;101815.66;;;-4.01;64.48
69955;BME280;57279;55.912;37.490;2022-11-30T12:43:32;101819.22;;;-4.28;64.10
69955;BME280;57279;55.912;37.490;2022-11-30T12:46:45;101821.97;;;-4.29;64.09
69955;BME280;57279;55.912;37.490;2022-11-30T12:57:12;101820.44;;;-4.46;64.88
69955;BME280;57279;55.912;37.490;2022-11-30T12:59:59;101820.75;;;-4.51;64.96
69955;BME280;57279;55.912;37.490;2022-11-30T13:05:21;101820.13;;;-4.82;65.15
69955;BME280;57279;55.912;37.490;2022-11-30T13:11:02;101827.59;;;-4.88;66.21
69955;BME280;57279;55.912;37.490;2022-11-30T13:13:33;101825.84;;;-4.75;65.71
69955;BME280;57279;55.912;37.490;2022-11-30T13:16:02;101819.94;;;-4.79;65.69
69955;BME280;57279;55.912;37.490;2022-11-30T13:18:28;101827.19;;;-4.82;65.54
69955;BME280;57279;55.912;37.490;2022-11-30T13:21:32;101830.94;;;-4.72;65.30
69955;BME280;57279;55.912;37.490;2022-11-30T13:24:10;101833.56;;;-4.72;64.71
69955;BME280;57279;55.912;37.490;2022-11-30T13:26:51;101833.56;;;-4.72;64.91
69955;BME280;57279;55.912;37.490;2022-11-30T13:32:21;101823.31;;;-4.77;64.74
69955;BME280;57279;55.912;37.490;2022-11-30T13:34:47;101826.25;;;-4.81;64.76
69955;BME280;57279;55.912;37.490;2022-11-30T13:37:17;101821.47;;;-4.89;64.78
69955;BME280;57279;55.912;37.490;2022-11-30T13:39:50;101818.69;;;-5.00;65.03
69955;BME280;57279;55.912;37.490;2022-11-30T13:42:37;101815.59;;;-5.07;65.01
69955;BME280;57279;55.912;37.490;2022-11-30T13:47:38;101822.75;;;-5.09;65.27
69955;BME280;57279;55.912;37.490;2022-11-30T13:50:37;101820.84;;;-5.07;65.28
69955;BME280;57279;55.912;37.490;2022-11-30T13:53:23;101818.25;;;-5.21;65.36
69955;BME280;57279;55.912;37.490;2022-11-30T13:56:05;101813.34;;;-5.13;65.62
69955;BME280;57279;55.912;37.490;2022-11-30T13:58:33;101810.72;;;-5.27;64.75
69955;BME280;57279;55.912;37.490;2022-11-30T14:04:21;101802.34;;;-5.20;64.82
69955;BME280;57279;55.912;37.490;2022-11-30T14:09:53;101811.88;;;-5.32;64.99
69955;BME280;57279;55.912;37.490;2022-11-30T14:23:56;101818.00;;;-5.45;65.13
69955;BME280;57279;55.912;37.490;2022-11-30T14:26:27;101818.66;;;-5.42;65.10
69955;BME280;57279;55.912;37.490;2022-11-30T14:29:12;101809.94;;;-5.42;65.25
69955;BME280;57279;55.912;37.490;2022-11-30T14:31:51;101808.63;;;-5.50;65.24
69955;BME280;57279;55.912;37.490;2022-11-30T14:34:22;101815.84;;;-5.53;65.30
69955;BME280;57279;55.912;37.490;2022-11-30T14:36:55;101812.16;;;-5.51;65.21
69955;BME280;57279;55.912;37.490;2022-11-30T14:39:34;101813.13;;;-5.52;65.41
69955;BME280;57279;55.912;37.490;2022-11-30T14:42:01;101815.09;;;-5.55;64.93